Cumberland Center, Maine
Current Conditions -  °F | °C
As of 1:51 AM on Sunday 23 Nov 2014 (Local Time) from KPWM Reporting Station
Broken Clouds Broken Clouds  
Wind Chill: 34°   Ceiling: 11000
Heat Index: 40°   Visibility: 10mi
Dew Point: 19°   Wind: 9mph
Humidity: 43%   Direction: 230°SW
Pressure: 29.99"   Gusts: NA
Location:  43.8°N, 70.25°W
Report Text: KPWM 230651Z AUTO 23008KT 10SM BKN110 04/M07 A2999 RMK AO2 SLP156 T00441072
Loading
Personal Weather Stations






























Interactive Weather Map New forecast layout! Learn more

10-Day Weather Forecast

Advertisements
Track Severe Weather on mobile